Terminal Aerodrome Forecast
Issued by NWS

Home | Current Version | Previous Version | Text Only | Print | Product List | Glossary On
Versions: 1 2 3 4 5 6 7 8 9 10 11 12 13 14 15 16 17 18 19 20 21 22 23 24 25 26 27 28 29
000
FTUS41 KBTV 301139
TAFPBG
TAF
KPBG 301139Z 3012/3112 17004KT 1SM -SN BR OVC025
      TEMPO 3012/3016 2SM -SN BR OVC020
     FM301600 33006KT 2SM -SN BR OVC025
     FM302100 32010G18KT 3SM -SN BR OVC030
     FM310200 32012G20KT P6SM OVC035=

USA.gov is the U.S. government's official web portal to all federal, state and local government web resources and services.